Albury
Weather
Information

and Archive.
Albury Local Internet Skycam This service provided and funded by Albury Local Internet

Help keep our weatherstation running:

Lavington Weatherstation live data - Conditions of Use

Last updated on 16-Oct-2018 at 22:46:06
Temperature
  Currently 14.9 degrees C
  Apparent Temperature ("Wind Chill") is 14.8 degrees C
  Today has ranged from 14.2 at 19:58 to 24.9 at 10:40
  Yesterday ranged from 11.2 at 08:58 to 29.1 at 15:45
Wind
  Now:    5.8kmh, gusting to   7.9kmh from 100 degrees ( E )
  Hour:   3.9kmh, gusting to  10.8kmh
Rainfall
   0.0mm Midnight to Midnight (ie, yesterday)
   2.8mm Since Midnight (ie, so far today)
   0.0mm 9am yesterday to 9am today
  18.6mm Total this month
Misc items
  Relative humidity is 91%
  Dewpoint is 13.4 deg C
  Estimated Cloudbase is 600 feet
  Barometric Pressure is 1018.0 mbar
  Solar Insolation: 0 W/m^2
  UV Index: 0.0 (Low)
Top Solar flares in the last 24 hours

Last 24 hours Temperature Graph (click graph for history)
temperature

Last 24 hours Dynamic Wind display (click image for 4-hour image):
Wind Rose

Current Yarrawonga Weather Radar and Infrared Satellite Images from the BOM.

Hourly summaries in the tables below are cumulative and peak values
for the preceding hour, and instantaneous values at the hour.
So far today, 16-Oct-2018
Time   Barom.  Wind + Gust    Direction   RH   Rain    Temp.  Minimum    Maximum
01:00  1018.0  15.5  29.2kmh    0 ( N )   62%  0.0mm   19.0  19.1@00:53 19.7@00:00
02:00  1017.0  15.8  29.2kmh   33 (NNE)   62%  0.0mm   18.6  18.6@01:58 19.1@01:01
03:00  1016.0  16.0  28.4kmh   65 (ENE)   62%  0.0mm   18.2  18.0@02:31 18.6@02:00
04:00  1017.0  18.0  30.6kmh   37 ( NE)   62%  0.0mm   18.2  18.2@03:00 18.4@03:19
05:00  1018.0  13.6  25.6kmh   11 ( N )   62%  0.0mm   18.2  18.2@04:00 18.4@04:22
06:00  1019.0   7.0  16.2kmh    6 ( N )   64%  0.0mm   17.9  17.9@05:53 18.2@05:00
07:00  1019.0   7.2  12.6kmh    8 ( N )   65%  0.0mm   18.0  17.6@06:17 18.0@06:56
08:00  1019.0  11.6  20.9kmh   27 (NNE)   61%  0.0mm   18.9  18.0@07:00 18.9@07:43
09:00  1019.0  16.2  29.9kmh   21 (NNE)   52%  0.0mm   22.5  18.9@08:00 22.6@08:56
10:00  1019.0  16.0  27.7kmh   51 ( NE)   49%  0.0mm   23.7  22.1@09:17 23.8@09:46
11:00  1019.0  14.7  29.9kmh   10 ( N )   49%  0.0mm   23.6  23.6@10:59 24.9@10:40
12:00  1018.0  14.1  27.7kmh  333 (NNW)   54%  0.0mm   22.3  21.8@11:35 23.6@11:00
13:00  1018.0  11.5  23.0kmh   43 ( NE)   86%  0.8mm   17.9  17.9@12:59 22.3@12:00
14:00  1018.0  13.0  24.5kmh  331 (NNW)   92%  0.2mm   17.4  17.2@13:39 18.1@13:19
15:00  1017.0   9.5  21.6kmh  327 (NNW)   91%  0.8mm   18.0  17.3@14:01 18.1@14:45
16:00  1016.0   7.4  14.0kmh  135 ( SE)   93%  0.0mm   18.0  17.9@15:24 18.4@15:14
17:00  1015.0   9.6  18.0kmh  126 ( SE)   88%  0.0mm   19.7  17.6@16:16 19.7@16:58
18:00  1015.0   7.1  13.3kmh  138 ( SE)   93%  0.2mm   17.5  17.5@17:59 19.9@17:08
19:00  1015.0   4.5  10.8kmh   98 ( E )   94%  0.0mm   17.4  17.3@18:50 17.6@18:11
20:00  1017.0  12.6  29.9kmh  246 (WSW)   95%  0.8mm   14.2  14.2@19:58 17.4@19:00
21:00  1017.0   8.4  27.7kmh  205 (SSW)   92%  0.0mm   14.7  14.2@20:00 14.7@20:54
22:00  1018.0   5.4  14.0kmh  137 ( SE)   90%  0.0mm   14.9  14.7@21:00 15.3@21:35
22:46  1018.0   3.9  10.8kmh   93 ( E )   91%  0.0mm   14.9  14.7@22:07 14.9@22:00


Summary for yesterday, 15-Oct-2018
Time   Barom.  Wind + Gust    Direction   RH   Rain    Temp.  Minimum    Maximum
01:00  1023.0  11.7  20.2kmh   15 (NNE)   64%  0.0mm   16.0  15.9@00:58 16.6@00:13
02:00  1022.0  13.4  24.5kmh   44 ( NE)   64%  0.0mm   16.1  15.9@01:01 16.2@01:25
03:00  1022.0  14.5  24.8kmh   55 ( NE)   66%  0.0mm   15.4  15.4@02:47 16.1@02:00
04:00  1022.0  13.1  23.8kmh   31 (NNE)   66%  0.0mm   15.1  15.1@03:57 15.6@03:19
05:00  1022.0   9.8  20.2kmh   45 ( NE)   68%  0.0mm   14.7  14.6@04:57 15.3@04:16
06:00  1023.0   8.5  14.8kmh   49 ( NE)   64%  0.0mm   15.0  14.4@05:15 15.1@05:41
07:00  1022.0  10.0  17.6kmh   52 ( NE)   64%  0.0mm   15.0  14.8@06:47 15.2@06:03
08:00  1022.0   6.6  18.7kmh   60 (ENE)   55%  0.0mm   18.9  15.0@07:00 18.9@07:58
09:00  1023.0   6.3  19.4kmh   39 ( NE)   52%  0.0mm   19.2  11.2@08:58 21.9@08:35
10:00  1023.0  14.5  32.0kmh   31 (NNE)   42%  0.0mm   22.3  19.2@09:00 22.3@09:56
11:00  1022.0  17.5  29.9kmh   29 (NNE)   46%  0.0mm   21.9  21.6@10:56 23.4@10:37
12:00  1021.0  16.7  29.9kmh   20 (NNE)   38%  0.0mm   25.1  21.9@11:00 25.3@11:44
13:00  1020.0  17.2  31.3kmh   31 (NNE)   34%  0.0mm   26.5  24.6@12:19 26.6@12:33
14:00  1020.0  15.9  34.6kmh  339 (NNW)   29%  0.0mm   27.6  26.5@13:00 28.3@13:49
15:00  1019.0  17.3  33.1kmh   49 ( NE)   27%  0.0mm   27.7  26.7@14:16 28.9@14:31
16:00  1018.0  19.6  37.4kmh   18 (NNE)   28%  0.0mm   27.9  26.7@15:09 29.1@15:45
17:00  1017.0  21.5  39.2kmh   21 (NNE)   27%  0.0mm   27.5  27.1@16:36 28.5@16:24
18:00  1017.0  18.3  36.7kmh   29 (NNE)   29%  0.0mm   26.3  26.3@17:57 28.0@17:18
19:00  1017.0  13.4  24.8kmh   29 (NNE)   35%  0.0mm   23.7  23.8@18:59 26.4@18:05
20:00  1018.0   9.8  17.6kmh   47 ( NE)   38%  0.0mm   22.5  22.4@19:57 23.7@19:00
21:00  1018.0  13.4  27.7kmh   24 (NNE)   46%  0.0mm   22.0  22.0@20:58 22.8@20:08
22:00  1018.0  18.6  32.4kmh   27 (NNE)   48%  0.0mm   21.6  21.6@21:59 22.2@21:12
23:00  1018.0  23.5  38.2kmh   23 (NNE)   55%  0.0mm   20.9  20.9@22:57 21.6@22:00
00:00  1018.0  17.7  35.3kmh    1 ( N )   60%  0.0mm   19.7  19.7@23:55 20.9@23:00